createdAt,value
2024-05-09T00:00:49.967Z,8.90
2024-05-09T00:03:17.354Z,10.98
2024-05-09T00:05:47.010Z,9.25
2024-05-09T00:08:14.506Z,11.30
2024-05-09T00:10:46.785Z,10.13
2024-05-09T00:13:13.918Z,11.05
2024-05-09T00:15:40.988Z,9.55
2024-05-09T00:18:12.934Z,11.23
2024-05-09T00:20:42.668Z,9.85
2024-05-09T00:23:13.892Z,11.90
2024-05-09T00:25:44.782Z,9.77
2024-05-09T00:28:14.722Z,10.57
2024-05-09T00:30:41.823Z,9.15
2024-05-09T00:33:12.016Z,10.38
2024-05-09T00:35:40.143Z,9.38
2024-05-09T00:38:07.576Z,9.68
2024-05-09T00:40:40.526Z,10.50
2024-05-09T00:43:10.672Z,10.20
2024-05-09T00:45:38.120Z,10.65
2024-05-09T00:48:09.481Z,9.85
2024-05-09T00:50:41.415Z,8.73
2024-05-09T00:53:12.998Z,10.88
2024-05-09T00:55:42.777Z,9.23
2024-05-09T00:58:12.655Z,9.48
2024-05-09T01:00:41.599Z,9.65
2024-05-09T01:03:13.365Z,10.95
2024-05-09T01:05:42.682Z,12.10
2024-05-09T01:08:13.222Z,10.63
2024-05-09T01:10:45.064Z,14.82
2024-05-09T01:13:14.234Z,11.13
2024-05-09T01:15:41.858Z,11.70
2024-05-09T01:18:14.642Z,12.35
2024-05-09T01:20:45.442Z,10.07
2024-05-09T01:23:15.179Z,11.57
2024-05-09T01:25:47.464Z,11.13
2024-05-09T01:28:15.189Z,9.43
2024-05-09T01:30:45.401Z,13.95
2024-05-09T01:33:15.073Z,9.43
2024-05-09T01:35:44.469Z,10.43
2024-05-09T01:38:13.615Z,12.98
2024-05-09T01:40:41.287Z,14.30
2024-05-09T01:43:11.822Z,11.48
2024-05-09T01:45:42.581Z,10.88
2024-05-09T01:48:12.411Z,10.95
2024-05-09T01:50:42.489Z,10.38
2024-05-09T01:53:15.221Z,10.27
2024-05-09T01:55:45.056Z,11.30
2024-05-09T01:58:14.572Z,9.60
2024-05-09T02:00:44.123Z,9.77
2024-05-09T02:03:15.816Z,10.93
2024-05-09T02:06:11.628Z,11.88
2024-05-09T02:08:41.769Z,13.85
2024-05-09T02:11:10.678Z,10.43
2024-05-09T02:13:37.895Z,11.13
2024-05-09T02:16:07.748Z,11.85
2024-05-09T02:18:37.083Z,9.75
2024-05-09T02:21:10.844Z,9.60
2024-05-09T02:23:38.029Z,10.38
2024-05-09T02:26:07.661Z,10.95
2024-05-09T02:28:37.026Z,10.00
2024-05-09T02:31:04.188Z,9.82
2024-05-09T02:33:33.938Z,11.23
2024-05-09T02:36:03.438Z,9.68
2024-05-09T02:38:30.845Z,11.77
2024-05-09T02:40:58.083Z,11.13
2024-05-09T02:43:27.614Z,12.70
2024-05-09T02:45:54.638Z,13.15
2024-05-09T02:48:21.931Z,10.02
2024-05-09T02:53:16.303Z,11.98
2024-05-09T02:58:13.193Z,9.48
2024-05-09T03:00:42.413Z,10.10
2024-05-09T03:03:13.211Z,11.15
2024-05-09T03:05:43.281Z,11.07
2024-05-09T03:08:15.484Z,9.75
2024-05-09T03:10:42.908Z,10.30
2024-05-09T03:13:12.972Z,9.40
2024-05-09T03:15:41.386Z,10.63
2024-05-09T03:18:11.599Z,9.63
2024-05-09T03:20:44.194Z,8.65
2024-05-09T03:23:13.926Z,8.55
2024-05-09T03:25:45.821Z,10.27
2024-05-09T03:28:15.105Z,9.98
2024-05-09T03:30:45.159Z,8.48
2024-05-09T03:33:19.995Z,8.05
2024-05-09T03:35:50.193Z,9.35
2024-05-09T03:38:22.202Z,8.50
2024-05-09T03:40:52.329Z,8.88
2024-05-09T03:43:22.082Z,9.48
2024-05-09T03:45:56.063Z,12.00
2024-05-09T03:48:23.371Z,18.23
2024-05-09T03:53:18.052Z,10.95
2024-05-09T03:55:47.555Z,10.02
2024-05-09T03:58:14.791Z,10.45
2024-05-09T04:00:44.792Z,9.00
2024-05-09T04:03:14.431Z,9.95
2024-05-09T04:05:46.549Z,10.23
2024-05-09T04:08:16.082Z,10.48
2024-05-09T04:10:43.494Z,10.70
2024-05-09T04:13:13.122Z,13.98
2024-05-09T04:15:42.410Z,11.35
2024-05-09T04:18:12.847Z,10.07
2024-05-09T04:20:42.617Z,12.40
2024-05-09T04:23:14.677Z,11.85
2024-05-09T04:25:45.954Z,11.75
2024-05-09T04:28:13.478Z,10.55
2024-05-09T04:30:41.775Z,10.50
2024-05-09T04:33:12.065Z,10.60
2024-05-09T04:35:44.685Z,13.30
2024-05-09T04:38:13.980Z,11.00
2024-05-09T04:40:43.892Z,15.55
2024-05-09T04:43:21.277Z,10.50
2024-05-09T04:45:53.452Z,10.10
2024-05-09T04:48:25.008Z,13.63
2024-05-09T04:50:54.449Z,14.80
2024-05-09T04:53:21.577Z,11.43
2024-05-09T04:55:51.627Z,23.58
2024-05-09T04:58:28.737Z,11.70
2024-05-09T05:00:58.477Z,12.65
2024-05-09T05:03:25.770Z,12.50
2024-05-09T05:05:52.955Z,15.63
2024-05-09T05:08:20.313Z,13.65
2024-05-09T05:10:48.636Z,31.23
2024-05-09T05:13:25.093Z,21.73
2024-05-09T05:15:56.553Z,11.43
2024-05-09T05:18:27.940Z,11.30
2024-05-09T05:21:00.681Z,14.52
2024-05-09T05:23:27.968Z,11.60
2024-05-09T05:28:25.567Z,11.23
2024-05-09T05:30:54.899Z,10.25
2024-05-09T05:33:23.036Z,11.43
2024-05-09T05:35:53.090Z,11.27
2024-05-09T05:38:22.833Z,10.93
2024-05-09T05:40:52.357Z,11.25
2024-05-09T05:43:21.825Z,11.32
2024-05-09T05:45:48.989Z,11.75
2024-05-09T05:48:18.937Z,13.63
2024-05-09T05:50:48.437Z,12.23
2024-05-09T05:53:15.778Z,12.70
2024-05-09T05:55:45.458Z,15.40
2024-05-09T05:58:13.301Z,14.60
2024-05-09T06:00:42.229Z,18.98
2024-05-09T06:03:13.803Z,21.52
2024-05-09T06:05:45.752Z,14.15
2024-05-09T06:08:13.058Z,12.27
2024-05-09T06:10:44.223Z,14.73
2024-05-09T06:13:14.582Z,13.60
2024-05-09T06:15:44.279Z,13.70
2024-05-09T06:18:12.696Z,12.75
2024-05-09T06:20:42.798Z,15.00
2024-05-09T06:23:11.123Z,13.55
2024-05-09T06:28:08.173Z,12.63
2024-05-09T06:30:41.974Z,13.88
2024-05-09T06:33:14.774Z,14.43
2024-05-09T06:35:44.179Z,11.35
2024-05-09T06:38:12.298Z,12.32
2024-05-09T06:40:43.052Z,13.85
2024-05-09T06:43:13.087Z,14.80
2024-05-09T06:45:42.863Z,13.65
2024-05-09T06:48:12.518Z,14.88
2024-05-09T06:50:40.988Z,16.10
2024-05-09T06:53:10.592Z,15.13
2024-05-09T06:55:42.323Z,18.58
2024-05-09T06:58:11.940Z,19.75
2024-05-09T07:00:41.282Z,18.65
2024-05-09T07:03:10.341Z,18.35
2024-05-09T07:05:38.063Z,21.27
2024-05-09T07:08:06.365Z,21.00
2024-05-09T07:10:35.664Z,20.50
2024-05-09T07:13:07.616Z,16.80
2024-05-09T07:15:34.702Z,19.00
2024-05-09T07:18:19.992Z,18.73
2024-05-09T07:20:49.556Z,18.80
2024-05-09T07:23:18.335Z,18.83
2024-05-09T07:25:46.110Z,14.23
2024-05-09T07:28:15.662Z,16.13
2024-05-09T07:30:43.623Z,14.20
2024-05-09T07:33:20.548Z,14.95
2024-05-09T07:35:49.425Z,13.38
2024-05-09T07:43:16.247Z,11.65
2024-05-09T07:45:52.223Z,15.38
2024-05-09T07:50:00.943Z,12.50
2024-05-09T07:53:51.264Z,11.30
2024-05-09T07:56:23.063Z,9.73
2024-05-09T07:58:53.051Z,10.52
2024-05-09T08:01:21.027Z,10.07
2024-05-09T08:03:49.799Z,11.73
2024-05-09T08:06:17.337Z,11.68
2024-05-09T08:08:46.919Z,8.32
2024-05-09T08:11:41.505Z,7.93
2024-05-09T08:14:08.696Z,10.35
2024-05-09T08:16:40.740Z,9.13
2024-05-09T08:19:08.378Z,9.95
2024-05-09T08:21:35.555Z,8.05
2024-05-09T08:24:05.173Z,8.50
2024-05-09T08:26:32.182Z,8.15
2024-05-09T08:29:01.561Z,10.63
